EDT,Max TemperatureF,Mean TemperatureF,Min TemperatureF,Max Dew PointF,MeanDew PointF,Min DewpointF,Max Humidity, Mean Humidity, Min Humidity, Max Sea Level PressureIn, Mean Sea Level PressureIn, Min Sea Level PressureIn, Max VisibilityMiles, Mean VisibilityMiles, Min VisibilityMiles, Max Wind SpeedMPH, Mean Wind SpeedMPH, Max Gust SpeedMPH,PrecipitationIn, CloudCover, Events, WindDirDegrees
2014-3-1,14,8,1,11,-1,-9,86,66,50,30.37,30.20,30.00,10,8,2,14,9,18,0.00,4,Snow,319
2014-3-2,3,-2,-7,-6,-9,-14,75,65,57,30.42,30.37,30.33,10,10,5,15,4,18,0.00,3,,298
2014-3-3,11,-4,-19,4,-9,-26,80,69,49,30.47,30.42,30.32,10,9,3,12,3,18,0.00,1,Snow,240
2014-3-4,17,10,2,11,8,-2,89,82,72,30.32,30.25,30.21,10,6,0,10,4,,0.00,5,Snow,257
2014-3-5,12,0,-11,5,-4,-17,85,78,67,30.58,30.50,30.33,10,10,7,8,3,,0.00,0,,1
2014-3-6,22,7,-8,9,1,-14,85,70,46,30.57,30.36,30.08,10,10,7,12,4,,0.00,0,,95
2014-3-7,38,28,17,30,19,4,97,72,52,30.07,29.94,29.83,10,8,1,17,9,24,0.00,4,Snow,227
2014-3-8,26,14,2,25,12,-1,97,81,65,30.24,30.17,30.01,10,9,5,10,7,,0.00,3,,325
2014-3-9,36,18,0,28,12,-4,93,69,41,30.18,29.92,29.66,10,10,10,20,7,31,0.00,5,,194
2014-3-10,45,36,26,32,30,25,97,74,59,29.68,29.57,29.45,10,9,3,18,9,25,0.00,1,,214
2014-3-11,41,34,27,31,27,20,90,74,57,29.90,29.73,29.56,10,10,10,14,6,,0.00,1,,315
2014-3-12,27,16,5,21,5,-2,85,70,53,30.13,29.99,29.87,10,10,10,21,12,30,0.00,1,,356
2014-3-13,27,10,-6,21,5,-11,83,70,54,30.12,29.98,29.76,10,10,7,17,5,25,0.00,4,,190
2014-3-14,44,36,27,34,31,22,100,82,60,29.75,29.52,29.40,10,7,0,21,12,30,0.00,6,Rain-Snow,224
2014-3-15,32,20,8,32,12,0,100,75,61,30.43,30.08,29.66,10,8,1,20,14,26,0.00,4,Snow,311
2014-3-16,12,6,0,1,-3,-8,83,67,48,30.52,30.44,30.26,10,10,10,9,6,,0.00,0,,349
2014-3-17,29,14,-2,18,2,-7,83,60,29,30.25,30.05,29.93,10,10,4,13,4,20,0.00,4,Snow,136
2014-3-18,40,32,23,29,19,10,76,63,51,30.02,29.98,29.94,10,10,10,10,7,,0.00,5,,96
2014-3-19,35,32,30,34,30,27,99,91,77,29.95,29.70,29.57,10,6,1,17,11,24,0.00,8,Snow,78
2014-3-20,33,30,26,30,25,20,98,80,59,30.05,29.91,29.74,10,9,2,20,15,25,0.00,5,Snow,275
2014-3-21,40,28,17,31,22,16,98,76,42,30.07,29.97,29.80,10,10,2,12,2,16,0.00,4,Snow,131
2014-3-22,32,21,10,32,17,5,99,81,62,30.36,30.09,29.80,10,9,3,20,7,28,0.00,5,Snow,317
2014-3-23,20,12,5,9,6,2,84,69,50,30.41,30.37,30.35,10,10,10,14,4,18,0.00,1,,286
2014-3-24,24,13,2,13,6,-2,87,68,52,30.35,30.19,29.97,10,10,7,18,4,26,0.00,2,,226
2014-3-25,21,16,10,13,7,1,86,67,51,30.19,30.02,29.90,10,10,3,17,6,24,0.00,5,Snow,321
2014-3-26,26,14,2,16,7,-2,85,70,53,30.26,30.20,30.08,10,10,7,17,4,23,0.00,2,,212
2014-3-27,37,30,24,35,29,14,99,85,53,30.08,29.80,29.55,10,5,0,14,8,22,0.00,8,Rain-Snow,159
2014-3-28,36,32,27,36,31,24,100,93,82,30.29,29.85,29.48,10,7,0,20,6,23,0.00,7,Fog-Rain-Snow,321
2014-3-29,32,26,21,28,23,18,93,81,72,30.34,30.29,30.25,10,10,10,9,4,,0.00,0,,355
2014-3-30,40,29,18,27,22,16,98,75,46,30.27,30.19,30.08,10,10,10,9,2,,0.00,0,,62
2014-3-31,56,42,28,31,27,22,81,55,31,30.13,30.03,29.82,10,10,10,21,7,25,0.00,3,Rain,124